sensor_id;sensor_type;location;lat;lon;timestamp;P1;durP1;ratioP1;P2;durP2;ratioP2
35909;SDS011;22004;49.120;-0.200;2023-09-30T00:02:20;11.35;;;4.25;;
35909;SDS011;22004;49.120;-0.200;2023-09-30T00:04:45;18.88;;;4.10;;
35909;SDS011;22004;49.120;-0.200;2023-09-30T00:07:11;12.32;;;4.00;;
35909;SDS011;22004;49.120;-0.200;2023-09-30T00:09:36;10.57;;;3.67;;
35909;SDS011;22004;49.120;-0.200;2023-09-30T00:12:02;14.77;;;3.90;;
35909;SDS011;22004;49.120;-0.200;2023-09-30T00:14:28;13.43;;;3.80;;
35909;SDS011;22004;49.120;-0.200;2023-09-30T00:16:54;11.05;;;3.80;;
35909;SDS011;22004;49.120;-0.200;2023-09-30T00:19:19;13.02;;;4.05;;
35909;SDS011;22004;49.120;-0.200;2023-09-30T00:21:47;10.38;;;3.70;;
35909;SDS011;22004;49.120;-0.200;2023-09-30T00:24:13;13.50;;;4.40;;
35909;SDS011;22004;49.120;-0.200;2023-09-30T00:26:38;11.55;;;3.75;;
35909;SDS011;22004;49.120;-0.200;2023-09-30T00:29:04;12.70;;;3.67;;
35909;SDS011;22004;49.120;-0.200;2023-09-30T00:31:30;10.00;;;3.58;;
35909;SDS011;22004;49.120;-0.200;2023-09-30T00:33:55;10.48;;;3.38;;
35909;SDS011;22004;49.120;-0.200;2023-09-30T00:36:21;12.32;;;3.95;;
35909;SDS011;22004;49.120;-0.200;2023-09-30T00:38:46;10.65;;;3.55;;
35909;SDS011;22004;49.120;-0.200;2023-09-30T00:41:12;11.68;;;3.75;;
35909;SDS011;22004;49.120;-0.200;2023-09-30T00:43:37;15.27;;;3.83;;
35909;SDS011;22004;49.120;-0.200;2023-09-30T00:46:06;13.60;;;4.20;;
35909;SDS011;22004;49.120;-0.200;2023-09-30T00:48:43;8.52;;;3.33;;
35909;SDS011;22004;49.120;-0.200;2023-09-30T00:51:08;8.35;;;3.17;;
35909;SDS011;22004;49.120;-0.200;2023-09-30T00:53:34;11.40;;;3.70;;
35909;SDS011;22004;49.120;-0.200;2023-09-30T00:55:59;8.88;;;3.20;;
35909;SDS011;22004;49.120;-0.200;2023-09-30T00:58:25;10.20;;;3.20;;
35909;SDS011;22004;49.120;-0.200;2023-09-30T01:00:54;9.60;;;3.65;;
35909;SDS011;22004;49.120;-0.200;2023-09-30T01:03:22;6.90;;;3.13;;
35909;SDS011;22004;49.120;-0.200;2023-09-30T01:05:48;10.20;;;3.75;;
35909;SDS011;22004;49.120;-0.200;2023-09-30T01:08:14;8.15;;;3.40;;
35909;SDS011;22004;49.120;-0.200;2023-09-30T01:10:44;10.15;;;3.20;;
35909;SDS011;22004;49.120;-0.200;2023-09-30T01:13:10;14.10;;;3.60;;
35909;SDS011;22004;49.120;-0.200;2023-09-30T01:15:35;11.60;;;4.10;;
35909;SDS011;22004;49.120;-0.200;2023-09-30T01:18:02;8.80;;;3.03;;
35909;SDS011;22004;49.120;-0.200;2023-09-30T01:20:28;11.85;;;3.47;;
35909;SDS011;22004;49.120;-0.200;2023-09-30T01:22:53;8.60;;;3.65;;
35909;SDS011;22004;49.120;-0.200;2023-09-30T01:25:21;8.77;;;3.38;;
35909;SDS011;22004;49.120;-0.200;2023-09-30T01:27:46;9.98;;;3.47;;
35909;SDS011;22004;49.120;-0.200;2023-09-30T01:30:12;13.90;;;3.42;;
35909;SDS011;22004;49.120;-0.200;2023-09-30T01:32:38;10.68;;;3.33;;
35909;SDS011;22004;49.120;-0.200;2023-09-30T01:35:04;7.72;;;3.00;;
35909;SDS011;22004;49.120;-0.200;2023-09-30T01:37:30;8.77;;;3.17;;
35909;SDS011;22004;49.120;-0.200;2023-09-30T01:39:56;7.18;;;2.85;;
35909;SDS011;22004;49.120;-0.200;2023-09-30T01:42:21;11.23;;;3.50;;
35909;SDS011;22004;49.120;-0.200;2023-09-30T01:44:46;10.50;;;3.45;;
35909;SDS011;22004;49.120;-0.200;2023-09-30T01:47:12;8.07;;;3.00;;
35909;SDS011;22004;49.120;-0.200;2023-09-30T01:49:38;11.75;;;3.50;;
35909;SDS011;22004;49.120;-0.200;2023-09-30T01:52:03;11.32;;;3.30;;
35909;SDS011;22004;49.120;-0.200;2023-09-30T01:54:29;9.93;;;3.35;;
35909;SDS011;22004;49.120;-0.200;2023-09-30T01:56:54;9.63;;;3.17;;
35909;SDS011;22004;49.120;-0.200;2023-09-30T01:59:20;8.70;;;3.50;;
35909;SDS011;22004;49.120;-0.200;2023-09-30T02:01:46;8.45;;;3.17;;
35909;SDS011;22004;49.120;-0.200;2023-09-30T02:04:12;9.95;;;3.25;;
35909;SDS011;22004;49.120;-0.200;2023-09-30T02:06:40;10.43;;;3.85;;
35909;SDS011;22004;49.120;-0.200;2023-09-30T02:09:06;10.00;;;3.33;;
35909;SDS011;22004;49.120;-0.200;2023-09-30T02:11:33;10.40;;;3.15;;
35909;SDS011;22004;49.120;-0.200;2023-09-30T02:13:59;7.55;;;3.08;;
35909;SDS011;22004;49.120;-0.200;2023-09-30T02:16:24;9.50;;;3.20;;
35909;SDS011;22004;49.120;-0.200;2023-09-30T02:18:50;9.90;;;3.90;;
35909;SDS011;22004;49.120;-0.200;2023-09-30T02:21:15;8.30;;;2.88;;
35909;SDS011;22004;49.120;-0.200;2023-09-30T02:23:41;8.57;;;3.28;;
35909;SDS011;22004;49.120;-0.200;2023-09-30T02:26:06;10.18;;;3.40;;
35909;SDS011;22004;49.120;-0.200;2023-09-30T02:28:32;10.80;;;3.38;;
35909;SDS011;22004;49.120;-0.200;2023-09-30T02:30:59;9.15;;;3.33;;
35909;SDS011;22004;49.120;-0.200;2023-09-30T02:33:25;9.98;;;3.53;;
35909;SDS011;22004;49.120;-0.200;2023-09-30T02:35:51;9.65;;;2.90;;
35909;SDS011;22004;49.120;-0.200;2023-09-30T02:38:16;12.38;;;2.85;;
35909;SDS011;22004;49.120;-0.200;2023-09-30T02:40:42;10.77;;;3.70;;
35909;SDS011;22004;49.120;-0.200;2023-09-30T02:43:11;9.73;;;3.10;;
35909;SDS011;22004;49.120;-0.200;2023-09-30T02:45:37;9.32;;;3.03;;
35909;SDS011;22004;49.120;-0.200;2023-09-30T02:48:02;9.27;;;3.35;;
35909;SDS011;22004;49.120;-0.200;2023-09-30T02:50:28;9.77;;;2.95;;
35909;SDS011;22004;49.120;-0.200;2023-09-30T02:52:53;9.85;;;3.10;;
35909;SDS011;22004;49.120;-0.200;2023-09-30T02:55:18;7.50;;;3.00;;
35909;SDS011;22004;49.120;-0.200;2023-09-30T02:57:44;9.98;;;3.13;;
35909;SDS011;22004;49.120;-0.200;2023-09-30T03:00:11;9.40;;;3.33;;
35909;SDS011;22004;49.120;-0.200;2023-09-30T03:02:51;7.45;;;3.17;;
35909;SDS011;22004;49.120;-0.200;2023-09-30T03:05:18;14.02;;;3.42;;
35909;SDS011;22004;49.120;-0.200;2023-09-30T03:07:45;8.45;;;2.67;;
35909;SDS011;22004;49.120;-0.200;2023-09-30T03:10:10;10.00;;;3.10;;
35909;SDS011;22004;49.120;-0.200;2023-09-30T03:12:37;8.82;;;2.47;;
35909;SDS011;22004;49.120;-0.200;2023-09-30T03:15:03;8.05;;;2.42;;
35909;SDS011;22004;49.120;-0.200;2023-09-30T03:17:30;11.02;;;3.22;;
35909;SDS011;22004;49.120;-0.200;2023-09-30T03:19:57;9.40;;;2.83;;
35909;SDS011;22004;49.120;-0.200;2023-09-30T03:22:22;10.07;;;3.20;;
35909;SDS011;22004;49.120;-0.200;2023-09-30T03:24:48;14.55;;;3.60;;
35909;SDS011;22004;49.120;-0.200;2023-09-30T03:27:13;8.20;;;2.92;;
35909;SDS011;22004;49.120;-0.200;2023-09-30T03:29:40;7.18;;;2.47;;
35909;SDS011;22004;49.120;-0.200;2023-09-30T03:32:06;9.20;;;3.22;;
35909;SDS011;22004;49.120;-0.200;2023-09-30T03:34:31;14.23;;;2.90;;
35909;SDS011;22004;49.120;-0.200;2023-09-30T03:36:57;8.57;;;3.25;;
35909;SDS011;22004;49.120;-0.200;2023-09-30T03:39:25;9.18;;;3.08;;
35909;SDS011;22004;49.120;-0.200;2023-09-30T03:41:55;9.38;;;3.00;;
35909;SDS011;22004;49.120;-0.200;2023-09-30T03:44:21;13.05;;;3.92;;
35909;SDS011;22004;49.120;-0.200;2023-09-30T03:46:48;8.85;;;3.33;;
35909;SDS011;22004;49.120;-0.200;2023-09-30T03:49:14;8.30;;;2.95;;
35909;SDS011;22004;49.120;-0.200;2023-09-30T03:51:40;8.68;;;3.05;;
35909;SDS011;22004;49.120;-0.200;2023-09-30T03:54:06;11.80;;;3.50;;
35909;SDS011;22004;49.120;-0.200;2023-09-30T03:56:33;10.00;;;3.08;;
35909;SDS011;22004;49.120;-0.200;2023-09-30T03:58:59;8.90;;;3.28;;
35909;SDS011;22004;49.120;-0.200;2023-09-30T04:01:24;7.60;;;2.95;;
35909;SDS011;22004;49.120;-0.200;2023-09-30T04:03:51;11.45;;;3.30;;
35909;SDS011;22004;49.120;-0.200;2023-09-30T04:06:19;10.52;;;3.35;;
35909;SDS011;22004;49.120;-0.200;2023-09-30T04:08:45;10.48;;;2.97;;
35909;SDS011;22004;49.120;-0.200;2023-09-30T04:11:10;9.00;;;2.85;;
35909;SDS011;22004;49.120;-0.200;2023-09-30T04:13:41;7.40;;;3.10;;
35909;SDS011;22004;49.120;-0.200;2023-09-30T04:16:07;9.85;;;3.65;;
35909;SDS011;22004;49.120;-0.200;2023-09-30T04:18:32;8.70;;;3.15;;
35909;SDS011;22004;49.120;-0.200;2023-09-30T04:20:57;9.35;;;2.95;;
35909;SDS011;22004;49.120;-0.200;2023-09-30T04:23:23;10.05;;;3.38;;
35909;SDS011;22004;49.120;-0.200;2023-09-30T04:25:48;10.68;;;3.38;;
35909;SDS011;22004;49.120;-0.200;2023-09-30T04:28:14;11.57;;;3.38;;
35909;SDS011;22004;49.120;-0.200;2023-09-30T04:30:44;11.38;;;2.80;;
35909;SDS011;22004;49.120;-0.200;2023-09-30T04:33:10;10.63;;;3.28;;
35909;SDS011;22004;49.120;-0.200;2023-09-30T04:35:37;10.75;;;3.22;;
35909;SDS011;22004;49.120;-0.200;2023-09-30T04:38:02;15.05;;;2.97;;
35909;SDS011;22004;49.120;-0.200;2023-09-30T04:40:29;10.25;;;3.20;;
35909;SDS011;22004;49.120;-0.200;2023-09-30T04:42:55;11.32;;;2.95;;
35909;SDS011;22004;49.120;-0.200;2023-09-30T04:45:23;9.60;;;3.17;;
35909;SDS011;22004;49.120;-0.200;2023-09-30T04:47:52;10.85;;;3.63;;
35909;SDS011;22004;49.120;-0.200;2023-09-30T04:50:18;9.57;;;3.50;;
35909;SDS011;22004;49.120;-0.200;2023-09-30T04:52:46;11.38;;;3.67;;
35909;SDS011;22004;49.120;-0.200;2023-09-30T04:55:12;13.20;;;3.95;;
35909;SDS011;22004;49.120;-0.200;2023-09-30T04:57:40;12.48;;;3.05;;
35909;SDS011;22004;49.120;-0.200;2023-09-30T05:00:07;11.00;;;3.30;;
35909;SDS011;22004;49.120;-0.200;2023-09-30T05:02:36;9.98;;;3.50;;
35909;SDS011;22004;49.120;-0.200;2023-09-30T05:05:01;13.65;;;4.30;;
35909;SDS011;22004;49.120;-0.200;2023-09-30T05:07:29;11.30;;;3.97;;
35909;SDS011;22004;49.120;-0.200;2023-09-30T05:09:54;12.55;;;4.32;;
35909;SDS011;22004;49.120;-0.200;2023-09-30T05:12:20;11.05;;;3.47;;
35909;SDS011;22004;49.120;-0.200;2023-09-30T05:14:45;14.68;;;3.15;;
35909;SDS011;22004;49.120;-0.200;2023-09-30T05:17:10;10.95;;;4.05;;
35909;SDS011;22004;49.120;-0.200;2023-09-30T05:19:37;13.07;;;3.40;;
35909;SDS011;22004;49.120;-0.200;2023-09-30T05:22:02;9.27;;;3.65;;
35909;SDS011;22004;49.120;-0.200;2023-09-30T05:24:28;11.20;;;3.80;;
35909;SDS011;22004;49.120;-0.200;2023-09-30T05:26:54;15.00;;;3.70;;
35909;SDS011;22004;49.120;-0.200;2023-09-30T05:29:20;9.82;;;3.60;;
35909;SDS011;22004;49.120;-0.200;2023-09-30T05:31:45;9.30;;;4.40;;
35909;SDS011;22004;49.120;-0.200;2023-09-30T05:34:11;10.98;;;3.30;;
35909;SDS011;22004;49.120;-0.200;2023-09-30T05:36:36;14.27;;;4.38;;
35909;SDS011;22004;49.120;-0.200;2023-09-30T05:39:01;12.10;;;3.47;;
35909;SDS011;22004;49.120;-0.200;2023-09-30T05:41:28;11.48;;;4.20;;
35909;SDS011;22004;49.120;-0.200;2023-09-30T05:43:54;10.23;;;3.75;;
35909;SDS011;22004;49.120;-0.200;2023-09-30T05:46:20;12.20;;;3.53;;
35909;SDS011;22004;49.120;-0.200;2023-09-30T05:48:46;17.20;;;3.45;;
35909;SDS011;22004;49.120;-0.200;2023-09-30T05:51:11;10.88;;;3.50;;
35909;SDS011;22004;49.120;-0.200;2023-09-30T05:53:40;10.13;;;4.13;;
35909;SDS011;22004;49.120;-0.200;2023-09-30T05:56:06;10.88;;;3.72;;
35909;SDS011;22004;49.120;-0.200;2023-09-30T05:58:32;8.90;;;3.35;;
35909;SDS011;22004;49.120;-0.200;2023-09-30T06:00:57;11.32;;;3.72;;
35909;SDS011;22004;49.120;-0.200;2023-09-30T06:03:22;10.20;;;3.53;;
35909;SDS011;22004;49.120;-0.200;2023-09-30T06:05:48;9.10;;;3.63;;
35909;SDS011;22004;49.120;-0.200;2023-09-30T06:08:14;10.88;;;4.18;;
35909;SDS011;22004;49.120;-0.200;2023-09-30T06:10:40;12.18;;;3.67;;
35909;SDS011;22004;49.120;-0.200;2023-09-30T06:13:11;11.77;;;3.97;;
35909;SDS011;22004;49.120;-0.200;2023-09-30T06:15:38;11.65;;;3.47;;
35909;SDS011;22004;49.120;-0.200;2023-09-30T06:18:08;18.02;;;4.45;;
35909;SDS011;22004;49.120;-0.200;2023-09-30T06:20:37;15.07;;;4.32;;
35909;SDS011;22004;49.120;-0.200;2023-09-30T06:23:03;12.77;;;3.75;;
35909;SDS011;22004;49.120;-0.200;2023-09-30T06:25:28;12.00;;;4.28;;
35909;SDS011;22004;49.120;-0.200;2023-09-30T06:27:55;11.52;;;4.35;;
35909;SDS011;22004;49.120;-0.200;2023-09-30T06:30:21;9.25;;;3.60;;
35909;SDS011;22004;49.120;-0.200;2023-09-30T06:32:47;10.90;;;4.10;;
35909;SDS011;22004;49.120;-0.200;2023-09-30T06:35:12;10.35;;;3.47;;
35909;SDS011;22004;49.120;-0.200;2023-09-30T06:37:38;9.85;;;3.42;;
35909;SDS011;22004;49.120;-0.200;2023-09-30T06:40:08;10.05;;;3.88;;
35909;SDS011;22004;49.120;-0.200;2023-09-30T06:42:36;10.20;;;3.85;;
35909;SDS011;22004;49.120;-0.200;2023-09-30T06:45:02;10.48;;;3.67;;
35909;SDS011;22004;49.120;-0.200;2023-09-30T06:47:30;11.05;;;3.83;;
35909;SDS011;22004;49.120;-0.200;2023-09-30T06:50:02;9.82;;;3.72;;
35909;SDS011;22004;49.120;-0.200;2023-09-30T06:52:36;9.30;;;3.53;;
35909;SDS011;22004;49.120;-0.200;2023-09-30T06:55:03;12.65;;;3.75;;
35909;SDS011;22004;49.120;-0.200;2023-09-30T06:57:33;15.07;;;4.43;;
35909;SDS011;22004;49.120;-0.200;2023-09-30T07:00:00;8.73;;;3.83;;
35909;SDS011;22004;49.120;-0.200;2023-09-30T07:02:26;7.88;;;3.53;;
35909;SDS011;22004;49.120;-0.200;2023-09-30T07:04:52;11.20;;;3.58;;
35909;SDS011;22004;49.120;-0.200;2023-09-30T07:07:18;9.02;;;3.90;;
35909;SDS011;22004;49.120;-0.200;2023-09-30T07:09:43;8.93;;;3.38;;
35909;SDS011;22004;49.120;-0.200;2023-09-30T07:12:09;11.80;;;4.32;;
35909;SDS011;22004;49.120;-0.200;2023-09-30T07:14:34;9.43;;;3.72;;
35909;SDS011;22004;49.120;-0.200;2023-09-30T07:17:00;9.80;;;3.92;;
35909;SDS011;22004;49.120;-0.200;2023-09-30T07:19:25;8.70;;;3.95;;
35909;SDS011;22004;49.120;-0.200;2023-09-30T07:21:50;10.85;;;3.97;;
35909;SDS011;22004;49.120;-0.200;2023-09-30T07:24:16;10.13;;;3.35;;
35909;SDS011;22004;49.120;-0.200;2023-09-30T07:26:41;10.05;;;4.05;;
35909;SDS011;22004;49.120;-0.200;2023-09-30T07:29:06;9.15;;;3.55;;
35909;SDS011;22004;49.120;-0.200;2023-09-30T07:31:35;7.80;;;3.47;;
35909;SDS011;22004;49.120;-0.200;2023-09-30T07:34:00;11.93;;;3.83;;
35909;SDS011;22004;49.120;-0.200;2023-09-30T07:36:26;11.77;;;3.83;;
35909;SDS011;22004;49.120;-0.200;2023-09-30T07:38:51;12.80;;;3.85;;
35909;SDS011;22004;49.120;-0.200;2023-09-30T07:41:17;11.95;;;3.58;;
35909;SDS011;22004;49.120;-0.200;2023-09-30T07:43:43;14.63;;;4.03;;
35909;SDS011;22004;49.120;-0.200;2023-09-30T07:46:08;8.52;;;3.28;;
35909;SDS011;22004;49.120;-0.200;2023-09-30T07:48:34;11.27;;;4.32;;
35909;SDS011;22004;49.120;-0.200;2023-09-30T07:51:00;9.68;;;3.72;;
35909;SDS011;22004;49.120;-0.200;2023-09-30T07:53:26;11.30;;;3.90;;
35909;SDS011;22004;49.120;-0.200;2023-09-30T07:55:52;9.70;;;3.50;;
35909;SDS011;22004;49.120;-0.200;2023-09-30T07:58:19;14.73;;;3.78;;
35909;SDS011;22004;49.120;-0.200;2023-09-30T08:00:44;11.63;;;4.30;;
35909;SDS011;22004;49.120;-0.200;2023-09-30T08:03:10;14.30;;;3.83;;
35909;SDS011;22004;49.120;-0.200;2023-09-30T08:05:36;14.30;;;3.75;;
35909;SDS011;22004;49.120;-0.200;2023-09-30T08:08:02;15.13;;;4.70;;
35909;SDS011;22004;49.120;-0.200;2023-09-30T08:10:27;15.38;;;3.80;;
35909;SDS011;22004;49.120;-0.200;2023-09-30T08:12:54;11.90;;;3.88;;
35909;SDS011;22004;49.120;-0.200;2023-09-30T08:15:22;13.48;;;4.28;;
35909;SDS011;22004;49.120;-0.200;2023-09-30T08:17:47;18.15;;;4.78;;
35909;SDS011;22004;49.120;-0.200;2023-09-30T08:20:12;11.23;;;4.47;;
35909;SDS011;22004;49.120;-0.200;2023-09-30T08:22:39;11.48;;;3.85;;
35909;SDS011;22004;49.120;-0.200;2023-09-30T08:25:06;12.68;;;4.00;;
35909;SDS011;22004;49.120;-0.200;2023-09-30T08:27:31;11.70;;;3.55;;
35909;SDS011;22004;49.120;-0.200;2023-09-30T08:29:57;16.58;;;3.60;;
35909;SDS011;22004;49.120;-0.200;2023-09-30T08:32:22;17.23;;;4.20;;
35909;SDS011;22004;49.120;-0.200;2023-09-30T08:34:48;16.63;;;4.70;;
35909;SDS011;22004;49.120;-0.200;2023-09-30T08:37:14;17.42;;;4.03;;
35909;SDS011;22004;49.120;-0.200;2023-09-30T08:39:39;13.52;;;4.35;;
35909;SDS011;22004;49.120;-0.200;2023-09-30T08:42:06;12.05;;;4.10;;
35909;SDS011;22004;49.120;-0.200;2023-09-30T08:44:37;19.77;;;3.85;;
35909;SDS011;22004;49.120;-0.200;2023-09-30T08:47:05;20.10;;;4.30;;
35909;SDS011;22004;49.120;-0.200;2023-09-30T08:49:33;19.27;;;4.05;;
35909;SDS011;22004;49.120;-0.200;2023-09-30T08:52:02;24.08;;;4.53;;
35909;SDS011;22004;49.120;-0.200;2023-09-30T08:54:28;17.85;;;5.00;;
35909;SDS011;22004;49.120;-0.200;2023-09-30T08:56:54;16.15;;;3.85;;
35909;SDS011;22004;49.120;-0.200;2023-09-30T08:59:20;18.65;;;4.93;;
35909;SDS011;22004;49.120;-0.200;2023-09-30T09:01:46;26.02;;;4.93;;
35909;SDS011;22004;49.120;-0.200;2023-09-30T09:04:12;23.52;;;5.20;;
35909;SDS011;22004;49.120;-0.200;2023-09-30T09:06:37;21.33;;;4.50;;
35909;SDS011;22004;49.120;-0.200;2023-09-30T09:09:21;27.40;;;4.80;;
35909;SDS011;22004;49.120;-0.200;2023-09-30T09:11:47;20.00;;;4.35;;
35909;SDS011;22004;49.120;-0.200;2023-09-30T09:14:13;25.67;;;4.85;;
35909;SDS011;22004;49.120;-0.200;2023-09-30T09:16:52;22.02;;;4.22;;
35909;SDS011;22004;49.120;-0.200;2023-09-30T09:19:18;26.02;;;4.63;;
35909;SDS011;22004;49.120;-0.200;2023-09-30T09:22:00;27.25;;;4.88;;
35909;SDS011;22004;49.120;-0.200;2023-09-30T09:27:04;21.23;;;4.43;;
35909;SDS011;22004;49.120;-0.200;2023-09-30T09:29:31;19.33;;;4.20;;
35909;SDS011;22004;49.120;-0.200;2023-09-30T09:32:10;28.13;;;5.47;;
35909;SDS011;22004;49.120;-0.200;2023-09-30T09:34:36;26.55;;;4.53;;
35909;SDS011;22004;49.120;-0.200;2023-09-30T09:37:17;22.27;;;4.53;;
35909;SDS011;22004;49.120;-0.200;2023-09-30T09:39:54;24.60;;;4.28;;
35909;SDS011;22004;49.120;-0.200;2023-09-30T09:42:29;26.35;;;4.68;;
35909;SDS011;22004;49.120;-0.200;2023-09-30T09:44:57;17.35;;;4.25;;
35909;SDS011;22004;49.120;-0.200;2023-09-30T09:47:25;24.27;;;4.43;;
35909;SDS011;22004;49.120;-0.200;2023-09-30T09:49:51;24.17;;;4.07;;
35909;SDS011;22004;49.120;-0.200;2023-09-30T09:52:18;23.85;;;4.30;;
35909;SDS011;22004;49.120;-0.200;2023-09-30T09:54:45;23.23;;;4.82;;
35909;SDS011;22004;49.120;-0.200;2023-09-30T09:57:11;21.02;;;4.28;;
35909;SDS011;22004;49.120;-0.200;2023-09-30T09:59:38;21.20;;;4.85;;
35909;SDS011;22004;49.120;-0.200;2023-09-30T10:02:08;22.58;;;5.03;;
35909;SDS011;22004;49.120;-0.200;2023-09-30T10:04:36;21.02;;;4.20;;
35909;SDS011;22004;49.120;-0.200;2023-09-30T10:07:02;21.52;;;5.00;;
35909;SDS011;22004;49.120;-0.200;2023-09-30T10:09:31;16.30;;;4.40;;
35909;SDS011;22004;49.120;-0.200;2023-09-30T10:12:03;21.38;;;4.82;;
35909;SDS011;22004;49.120;-0.200;2023-09-30T10:14:32;25.00;;;4.90;;
35909;SDS011;22004;49.120;-0.200;2023-09-30T10:16:58;30.88;;;5.95;;
35909;SDS011;22004;49.120;-0.200;2023-09-30T10:19:24;20.67;;;4.15;;
35909;SDS011;22004;49.120;-0.200;2023-09-30T10:24:51;21.42;;;4.82;;
35909;SDS011;22004;49.120;-0.200;2023-09-30T10:37:44;43.53;;;15.05;;
35909;SDS011;22004;49.120;-0.200;2023-09-30T10:40:20;28.90;;;6.15;;
35909;SDS011;22004;49.120;-0.200;2023-09-30T10:42:51;24.08;;;5.93;;
35909;SDS011;22004;49.120;-0.200;2023-09-30T10:50:55;22.63;;;5.68;;
35909;SDS011;22004;49.120;-0.200;2023-09-30T10:53:23;20.73;;;6.75;;
35909;SDS011;22004;49.120;-0.200;2023-09-30T10:55:53;25.17;;;6.68;;
35909;SDS011;22004;49.120;-0.200;2023-09-30T10:58:20;19.77;;;5.85;;
35909;SDS011;22004;49.120;-0.200;2023-09-30T11:00:52;24.05;;;5.72;;
35909;SDS011;22004;49.120;-0.200;2023-09-30T11:03:19;19.05;;;6.25;;
35909;SDS011;22004;49.120;-0.200;2023-09-30T11:05:48;26.17;;;7.05;;
35909;SDS011;22004;49.120;-0.200;2023-09-30T11:08:16;31.77;;;6.55;;
35909;SDS011;22004;49.120;-0.200;2023-09-30T11:10:47;24.30;;;6.78;;
35909;SDS011;22004;49.120;-0.200;2023-09-30T11:13:16;24.00;;;6.45;;
35909;SDS011;22004;49.120;-0.200;2023-09-30T11:15:45;20.45;;;6.13;;
35909;SDS011;22004;49.120;-0.200;2023-09-30T11:18:17;26.98;;;6.82;;
35909;SDS011;22004;49.120;-0.200;2023-09-30T11:20:43;30.15;;;9.20;;
35909;SDS011;22004;49.120;-0.200;2023-09-30T11:23:10;22.23;;;7.25;;
35909;SDS011;22004;49.120;-0.200;2023-09-30T11:25:37;18.35;;;5.90;;
35909;SDS011;22004;49.120;-0.200;2023-09-30T11:28:16;24.42;;;7.40;;
35909;SDS011;22004;49.120;-0.200;2023-09-30T11:33:22;26.88;;;7.40;;
35909;SDS011;22004;49.120;-0.200;2023-09-30T11:36:01;18.67;;;6.43;;
35909;SDS011;22004;49.120;-0.200;2023-09-30T11:38:28;24.95;;;7.80;;
35909;SDS011;22004;49.120;-0.200;2023-09-30T11:41:00;24.98;;;7.03;;
35909;SDS011;22004;49.120;-0.200;2023-09-30T11:43:31;25.23;;;6.88;;
35909;SDS011;22004;49.120;-0.200;2023-09-30T11:46:10;23.35;;;6.72;;
35909;SDS011;22004;49.120;-0.200;2023-09-30T11:48:39;27.98;;;8.05;;
35909;SDS011;22004;49.120;-0.200;2023-09-30T11:51:21;24.83;;;7.80;;
35909;SDS011;22004;49.120;-0.200;2023-09-30T11:53:49;25.42;;;8.07;;
35909;SDS011;22004;49.120;-0.200;2023-09-30T11:56:16;24.45;;;8.40;;
35909;SDS011;22004;49.120;-0.200;2023-09-30T11:58:42;23.35;;;7.40;;
35909;SDS011;22004;49.120;-0.200;2023-09-30T12:01:07;21.08;;;7.10;;
35909;SDS011;22004;49.120;-0.200;2023-09-30T12:03:36;21.35;;;7.75;;
35909;SDS011;22004;49.120;-0.200;2023-09-30T12:06:05;24.73;;;7.80;;
35909;SDS011;22004;49.120;-0.200;2023-09-30T12:08:32;24.60;;;8.70;;
35909;SDS011;22004;49.120;-0.200;2023-09-30T12:10:58;28.20;;;8.27;;
35909;SDS011;22004;49.120;-0.200;2023-09-30T12:13:27;22.25;;;7.88;;
35909;SDS011;22004;49.120;-0.200;2023-09-30T12:15:52;24.52;;;7.68;;
35909;SDS011;22004;49.120;-0.200;2023-09-30T12:18:18;23.00;;;7.43;;
35909;SDS011;22004;49.120;-0.200;2023-09-30T12:20:48;25.42;;;8.32;;
35909;SDS011;22004;49.120;-0.200;2023-09-30T12:23:14;26.00;;;7.78;;
35909;SDS011;22004;49.120;-0.200;2023-09-30T12:25:39;23.98;;;7.72;;
35909;SDS011;22004;49.120;-0.200;2023-09-30T12:28:05;23.48;;;8.23;;
35909;SDS011;22004;49.120;-0.200;2023-09-30T12:30:30;24.92;;;8.90;;
35909;SDS011;22004;49.120;-0.200;2023-09-30T12:32:57;24.75;;;7.85;;
35909;SDS011;22004;49.120;-0.200;2023-09-30T12:35:22;24.40;;;7.95;;
35909;SDS011;22004;49.120;-0.200;2023-09-30T12:37:48;26.00;;;8.07;;
35909;SDS011;22004;49.120;-0.200;2023-09-30T12:40:13;21.58;;;8.00;;
35909;SDS011;22004;49.120;-0.200;2023-09-30T12:42:41;25.75;;;8.43;;
35909;SDS011;22004;49.120;-0.200;2023-09-30T12:45:10;22.33;;;7.40;;
35909;SDS011;22004;49.120;-0.200;2023-09-30T12:47:36;25.08;;;8.40;;
35909;SDS011;22004;49.120;-0.200;2023-09-30T12:50:01;23.02;;;8.07;;
35909;SDS011;22004;49.120;-0.200;2023-09-30T12:52:28;24.92;;;7.78;;
35909;SDS011;22004;49.120;-0.200;2023-09-30T12:54:55;24.40;;;8.20;;
35909;SDS011;22004;49.120;-0.200;2023-09-30T12:57:20;25.10;;;9.20;;
35909;SDS011;22004;49.120;-0.200;2023-09-30T12:59:46;25.15;;;8.85;;
35909;SDS011;22004;49.120;-0.200;2023-09-30T13:02:12;26.83;;;8.70;;
35909;SDS011;22004;49.120;-0.200;2023-09-30T13:04:38;21.42;;;8.20;;
35909;SDS011;22004;49.120;-0.200;2023-09-30T13:07:11;23.15;;;7.38;;
35909;SDS011;22004;49.120;-0.200;2023-09-30T13:09:40;22.35;;;7.50;;
35909;SDS011;22004;49.120;-0.200;2023-09-30T13:12:06;26.40;;;8.05;;
35909;SDS011;22004;49.120;-0.200;2023-09-30T13:14:32;19.20;;;7.70;;
35909;SDS011;22004;49.120;-0.200;2023-09-30T13:16:57;22.10;;;7.45;;
35909;SDS011;22004;49.120;-0.200;2023-09-30T13:19:23;24.63;;;8.00;;
35909;SDS011;22004;49.120;-0.200;2023-09-30T13:21:52;23.52;;;7.82;;
35909;SDS011;22004;49.120;-0.200;2023-09-30T13:24:20;30.98;;;8.13;;
35909;SDS011;22004;49.120;-0.200;2023-09-30T13:26:45;27.35;;;8.18;;
35909;SDS011;22004;49.120;-0.200;2023-09-30T13:29:11;20.30;;;7.72;;
35909;SDS011;22004;49.120;-0.200;2023-09-30T13:31:38;24.60;;;7.75;;
35909;SDS011;22004;49.120;-0.200;2023-09-30T13:34:04;23.52;;;7.72;;
35909;SDS011;22004;49.120;-0.200;2023-09-30T13:36:30;25.17;;;7.75;;
35909;SDS011;22004;49.120;-0.200;2023-09-30T13:38:55;19.92;;;7.55;;
35909;SDS011;22004;49.120;-0.200;2023-09-30T13:41:21;25.23;;;7.93;;
35909;SDS011;22004;49.120;-0.200;2023-09-30T13:43:46;24.00;;;8.00;;
35909;SDS011;22004;49.120;-0.200;2023-09-30T13:46:12;18.30;;;6.20;;
35909;SDS011;22004;49.120;-0.200;2023-09-30T13:48:37;23.70;;;7.70;;
35909;SDS011;22004;49.120;-0.200;2023-09-30T13:51:04;20.20;;;7.05;;
35909;SDS011;22004;49.120;-0.200;2023-09-30T13:53:32;28.83;;;7.65;;
35909;SDS011;22004;49.120;-0.200;2023-09-30T13:55:57;22.80;;;6.93;;
35909;SDS011;22004;49.120;-0.200;2023-09-30T13:58:23;18.48;;;6.78;;
35909;SDS011;22004;49.120;-0.200;2023-09-30T14:00:49;25.20;;;7.75;;
35909;SDS011;22004;49.120;-0.200;2023-09-30T14:03:17;22.98;;;7.05;;
35909;SDS011;22004;49.120;-0.200;2023-09-30T14:05:45;27.08;;;8.05;;
35909;SDS011;22004;49.120;-0.200;2023-09-30T14:08:11;24.80;;;6.88;;
35909;SDS011;22004;49.120;-0.200;2023-09-30T14:10:37;17.83;;;6.43;;
35909;SDS011;22004;49.120;-0.200;2023-09-30T14:13:03;20.98;;;7.22;;
35909;SDS011;22004;49.120;-0.200;2023-09-30T14:15:28;20.35;;;7.40;;
35909;SDS011;22004;49.120;-0.200;2023-09-30T14:17:56;19.77;;;6.97;;
35909;SDS011;22004;49.120;-0.200;2023-09-30T14:20:23;21.65;;;7.60;;
35909;SDS011;22004;49.120;-0.200;2023-09-30T14:22:49;21.75;;;7.40;;
35909;SDS011;22004;49.120;-0.200;2023-09-30T14:25:16;20.77;;;7.30;;
35909;SDS011;22004;49.120;-0.200;2023-09-30T14:27:42;21.38;;;8.35;;
35909;SDS011;22004;49.120;-0.200;2023-09-30T14:30:07;20.25;;;7.75;;
35909;SDS011;22004;49.120;-0.200;2023-09-30T14:32:33;24.42;;;7.07;;
35909;SDS011;22004;49.120;-0.200;2023-09-30T14:34:59;18.73;;;7.30;;
35909;SDS011;22004;49.120;-0.200;2023-09-30T14:37:24;21.95;;;7.85;;
35909;SDS011;22004;49.120;-0.200;2023-09-30T14:39:49;18.90;;;7.47;;
35909;SDS011;22004;49.120;-0.200;2023-09-30T14:42:15;19.73;;;7.65;;
35909;SDS011;22004;49.120;-0.200;2023-09-30T14:44:40;16.35;;;7.18;;
35909;SDS011;22004;49.120;-0.200;2023-09-30T14:47:06;21.70;;;7.53;;